createdAt,value
2016-07-31T00:00:02.188Z,0
2016-07-31T00:01:02.169Z,0
2016-07-31T00:02:02.153Z,0
2016-07-31T00:03:02.130Z,0
2016-07-31T00:04:02.111Z,0
2016-07-31T00:05:02.097Z,0
2016-07-31T00:06:02.078Z,0
2016-07-31T00:07:02.054Z,0
2016-07-31T00:08:02.041Z,0
2016-07-31T00:09:02.025Z,0
2016-07-31T00:10:01.999Z,0
2016-07-31T00:11:01.986Z,0
2016-07-31T00:12:01.966Z,0
2016-07-31T00:13:01.948Z,0
2016-07-31T00:14:01.930Z,0
2016-07-31T00:15:01.905Z,0
2016-07-31T00:16:01.891Z,0
2016-07-31T00:17:01.874Z,0
2016-07-31T00:18:01.854Z,0
2016-07-31T00:19:01.832Z,0
2016-07-31T00:20:01.814Z,0
2016-07-31T00:21:01.799Z,0
2016-07-31T00:22:01.778Z,0
2016-07-31T00:23:01.757Z,0
2016-07-31T00:24:01.736Z,0
2016-07-31T00:25:01.718Z,0
2016-07-31T00:26:01.702Z,0
2016-07-31T00:27:01.685Z,0
2016-07-31T00:28:01.667Z,0
2016-07-31T00:29:01.650Z,0
2016-07-31T00:30:01.626Z,0
2016-07-31T00:31:01.609Z,0
2016-07-31T00:32:01.595Z,0
2016-07-31T00:33:01.578Z,0
2016-07-31T00:34:01.552Z,0
2016-07-31T00:35:01.529Z,0
2016-07-31T00:36:01.514Z,0
2016-07-31T00:37:01.497Z,0
2016-07-31T00:38:01.480Z,0
2016-07-31T00:39:01.462Z,0
2016-07-31T00:40:02.138Z,0
2016-07-31T00:41:01.426Z,0
2016-07-31T00:42:01.407Z,0
2016-07-31T00:44:01.365Z,0
2016-07-31T00:45:01.344Z,0
2016-07-31T00:46:01.334Z,0
2016-07-31T00:47:01.310Z,0
2016-07-31T00:48:01.981Z,0
2016-07-31T00:49:01.273Z,0
2016-07-31T00:50:01.945Z,0
2016-07-31T00:51:01.233Z,0
2016-07-31T00:52:01.216Z,0
2016-07-31T00:53:01.196Z,0
2016-07-31T00:54:01.179Z,0
2016-07-31T00:55:01.158Z,0
2016-07-31T00:56:01.142Z,0
2016-07-31T00:57:01.128Z,0
2016-07-31T00:59:01.083Z,0
2016-07-31T01:00:01.065Z,0
2016-07-31T01:01:01.041Z,0
2016-07-31T01:02:01.029Z,0
2016-07-31T01:03:01.008Z,0
2016-07-31T01:04:00.988Z,0
2016-07-31T01:05:00.978Z,0
2016-07-31T01:06:00.953Z,0
2016-07-31T01:07:00.929Z,0
2016-07-31T01:08:00.965Z,0
2016-07-31T01:09:00.892Z,0
2016-07-31T01:10:00.871Z,0
2016-07-31T01:11:00.853Z,0
2016-07-31T01:12:00.832Z,0
2016-07-31T01:14:00.792Z,0
2016-07-31T01:15:00.798Z,0
2016-07-31T01:16:00.753Z,0
2016-07-31T01:17:00.735Z,0
2016-07-31T01:18:00.712Z,0
2016-07-31T01:19:00.695Z,0
2016-07-31T01:20:00.676Z,0
2016-07-31T01:21:00.656Z,0
2016-07-31T01:22:00.639Z,0
2016-07-31T01:23:00.627Z,0
2016-07-31T01:24:00.600Z,0
2016-07-31T01:25:00.586Z,0
2016-07-31T01:26:00.560Z,0
2016-07-31T01:27:00.552Z,0
2016-07-31T01:29:00.502Z,0
2016-07-31T01:30:00.483Z,0
2016-07-31T01:31:00.466Z,0
2016-07-31T01:32:00.446Z,0
2016-07-31T01:33:01.120Z,0
2016-07-31T01:34:00.409Z,0
2016-07-31T01:35:00.383Z,0
2016-07-31T01:36:00.368Z,0
2016-07-31T01:37:00.345Z,0
2016-07-31T01:38:00.322Z,0
2016-07-31T01:39:00.318Z,0
2016-07-31T01:40:00.292Z,0
2016-07-31T01:41:00.278Z,0
2016-07-31T01:42:00.247Z,0
2016-07-31T01:44:00.215Z,0
2016-07-31T01:45:00.190Z,0
2016-07-31T01:46:00.177Z,0
2016-07-31T01:47:00.152Z,0
2016-07-31T01:48:00.133Z,0
2016-07-31T01:49:00.111Z,0
2016-07-31T01:50:00.101Z,0
2016-07-31T01:51:00.085Z,0
2016-07-31T01:52:00.052Z,0
2016-07-31T01:53:00.036Z,0
2016-07-31T01:54:00.020Z,0
2016-07-31T01:55:00.007Z,0
2016-07-31T01:55:59.974Z,0
2016-07-31T01:56:59.957Z,0
2016-07-31T01:57:59.937Z,0
2016-07-31T01:58:59.917Z,0
2016-07-31T01:59:59.901Z,0
2016-07-31T02:00:59.879Z,0
2016-07-31T02:01:59.858Z,0
2016-07-31T02:02:59.836Z,0
2016-07-31T02:03:59.814Z,0
2016-07-31T02:04:59.800Z,0
2016-07-31T02:05:59.781Z,0
2016-07-31T02:06:59.758Z,0
2016-07-31T02:07:59.798Z,0
2016-07-31T02:08:59.721Z,0
2016-07-31T02:09:59.703Z,0
2016-07-31T02:10:59.683Z,0
2016-07-31T02:11:59.664Z,0
2016-07-31T02:12:59.655Z,0
2016-07-31T02:13:59.633Z,0
2016-07-31T02:14:59.604Z,0
2016-07-31T02:15:59.578Z,0
2016-07-31T02:16:59.565Z,0
2016-07-31T02:17:59.547Z,0
2016-07-31T02:18:59.528Z,0
2016-07-31T02:19:59.505Z,0
2016-07-31T02:20:59.488Z,0
2016-07-31T02:21:59.468Z,0
2016-07-31T02:22:59.446Z,0
2016-07-31T02:23:59.428Z,0
2016-07-31T02:24:59.412Z,0
2016-07-31T02:25:59.394Z,0
2016-07-31T02:26:59.372Z,0
2016-07-31T02:27:59.350Z,0
2016-07-31T02:28:59.328Z,0
2016-07-31T02:29:59.312Z,0
2016-07-31T02:30:59.294Z,0
2016-07-31T02:31:59.274Z,0
2016-07-31T02:32:59.254Z,0
2016-07-31T02:33:59.238Z,0
2016-07-31T02:34:59.214Z,0
2016-07-31T02:35:59.197Z,0
2016-07-31T02:36:59.179Z,0
2016-07-31T02:37:59.156Z,0
2016-07-31T02:38:59.840Z,0
2016-07-31T02:39:59.118Z,0
2016-07-31T02:40:59.100Z,0
2016-07-31T02:41:59.078Z,0
2016-07-31T02:42:59.060Z,0
2016-07-31T02:43:59.041Z,0
2016-07-31T02:44:59.019Z,0
2016-07-31T02:45:59.003Z,0
2016-07-31T02:46:58.979Z,0
2016-07-31T02:47:58.964Z,0
2016-07-31T02:48:58.941Z,0
2016-07-31T02:49:58.920Z,0
2016-07-31T02:50:58.904Z,0
2016-07-31T02:51:58.887Z,0
2016-07-31T02:52:58.866Z,0
2016-07-31T02:53:58.847Z,0
2016-07-31T02:54:58.828Z,0
2016-07-31T02:55:58.810Z,0
2016-07-31T02:56:58.807Z,0
2016-07-31T02:57:58.765Z,0
2016-07-31T02:58:58.746Z,0
2016-07-31T02:59:58.733Z,0
2016-07-31T03:00:58.712Z,0
2016-07-31T03:01:58.688Z,0
2016-07-31T03:02:58.671Z,0
2016-07-31T03:03:58.652Z,0
2016-07-31T03:04:58.636Z,0
2016-07-31T03:05:58.612Z,0
2016-07-31T03:06:58.638Z,0
2016-07-31T03:07:58.661Z,0
2016-07-31T03:08:58.567Z,0
2016-07-31T03:09:58.582Z,0
2016-07-31T03:10:58.549Z,0
2016-07-31T03:11:58.494Z,0
2016-07-31T03:12:58.494Z,4
2016-07-31T03:13:58.500Z,4
2016-07-31T03:14:58.462Z,4
2016-07-31T03:15:58.474Z,0
2016-07-31T03:16:58.474Z,4
2016-07-31T03:17:59.140Z,4
2016-07-31T03:18:58.396Z,4
2016-07-31T03:19:58.393Z,8
2016-07-31T03:20:58.401Z,4
2016-07-31T03:21:58.314Z,4
2016-07-31T03:22:58.351Z,8
2016-07-31T03:23:58.266Z,8
2016-07-31T03:24:58.287Z,8
2016-07-31T03:25:58.254Z,12
2016-07-31T03:26:58.227Z,8
2016-07-31T03:27:58.202Z,16
2016-07-31T03:28:58.202Z,20
2016-07-31T03:29:58.184Z,20
2016-07-31T03:30:58.174Z,28
2016-07-31T03:31:58.132Z,32
2016-07-31T03:32:58.106Z,40
2016-07-31T03:33:58.127Z,44
2016-07-31T03:34:58.076Z,52
2016-07-31T03:35:58.061Z,56
2016-07-31T03:36:58.061Z,60
2016-07-31T03:37:58.035Z,64
2016-07-31T03:38:58.029Z,72
2016-07-31T03:39:58.024Z,84
2016-07-31T03:40:57.970Z,88
2016-07-31T03:41:58.007Z,100
2016-07-31T03:42:57.964Z,112
2016-07-31T03:43:57.899Z,124
2016-07-31T03:44:57.908Z,144
2016-07-31T03:45:57.886Z,164
2016-07-31T03:46:57.829Z,188
2016-07-31T03:47:57.816Z,212
2016-07-31T03:48:57.793Z,240
2016-07-31T03:49:57.773Z,264
2016-07-31T03:50:57.752Z,284
2016-07-31T03:51:57.730Z,300
2016-07-31T03:52:57.715Z,316
2016-07-31T03:53:57.695Z,320
2016-07-31T03:54:57.672Z,328
2016-07-31T03:55:57.657Z,336
2016-07-31T03:56:57.637Z,344
2016-07-31T03:57:57.618Z,352
2016-07-31T03:58:57.604Z,368
2016-07-31T03:59:57.582Z,388
2016-07-31T04:00:57.561Z,412
2016-07-31T04:01:57.540Z,436
2016-07-31T04:02:57.520Z,476
2016-07-31T04:03:57.506Z,512
2016-07-31T04:04:57.491Z,556
2016-07-31T04:05:57.466Z,600
2016-07-31T04:06:57.449Z,652
2016-07-31T04:07:57.433Z,708
2016-07-31T04:08:57.423Z,776
2016-07-31T04:09:57.392Z,868
2016-07-31T04:10:57.372Z,956
2016-07-31T04:11:57.348Z,1024
2016-07-31T04:12:57.332Z,1072
2016-07-31T04:13:57.311Z,1120
2016-07-31T04:14:57.298Z,1172
2016-07-31T04:15:57.274Z,1252
2016-07-31T04:16:57.250Z,1364
2016-07-31T04:17:57.235Z,1492
2016-07-31T04:18:57.213Z,1648
2016-07-31T04:19:57.197Z,1796
2016-07-31T04:20:57.179Z,1912
2016-07-31T04:21:57.160Z,1988
2016-07-31T04:22:57.140Z,2004
2016-07-31T04:23:57.121Z,1984
2016-07-31T04:24:57.105Z,1896
2016-07-31T04:25:57.081Z,1828
2016-07-31T04:26:57.063Z,1800
2016-07-31T04:27:57.744Z,1796
2016-07-31T04:28:57.036Z,1824
2016-07-31T04:29:57.007Z,1880
2016-07-31T04:30:57.682Z,1948
2016-07-31T04:31:56.967Z,2024
2016-07-31T04:32:56.950Z,2108
2016-07-31T04:33:56.932Z,2180
2016-07-31T04:34:56.913Z,2264
2016-07-31T04:35:56.894Z,2368
2016-07-31T04:36:56.876Z,2492
2016-07-31T04:37:56.856Z,2616
2016-07-31T04:38:56.842Z,2752
2016-07-31T04:39:56.812Z,2880
2016-07-31T04:40:56.809Z,3008
2016-07-31T04:41:56.779Z,3176
2016-07-31T04:42:56.762Z,3384
2016-07-31T04:43:56.736Z,3584
2016-07-31T04:44:56.723Z,3768
2016-07-31T04:45:57.395Z,3960
2016-07-31T04:46:56.687Z,4176
2016-07-31T04:47:56.671Z,4396
2016-07-31T04:48:56.649Z,4596
2016-07-31T04:49:56.633Z,4764
2016-07-31T04:50:56.615Z,4904
2016-07-31T04:51:56.596Z,5012
2016-07-31T04:52:56.574Z,5076
2016-07-31T04:53:57.254Z,5088
2016-07-31T04:54:56.537Z,5016
2016-07-31T04:55:56.524Z,4884
2016-07-31T04:56:56.500Z,4708
2016-07-31T04:57:56.484Z,4516
2016-07-31T04:59:56.445Z,4180
2016-07-31T05:00:56.429Z,4120
2016-07-31T05:01:56.406Z,4088
2016-07-31T05:02:56.390Z,4104
2016-07-31T05:03:56.377Z,4144
2016-07-31T05:04:56.350Z,4208
2016-07-31T05:05:56.335Z,4280
2016-07-31T05:06:56.316Z,4376
2016-07-31T05:07:56.295Z,4476
2016-07-31T05:08:56.274Z,4536
2016-07-31T05:09:56.270Z,4528
2016-07-31T05:10:56.241Z,4544
2016-07-31T05:11:56.225Z,4604
2016-07-31T05:12:56.206Z,4736
2016-07-31T05:14:56.170Z,5164
2016-07-31T05:15:56.150Z,5408
2016-07-31T05:16:56.129Z,5624
2016-07-31T05:17:56.115Z,5724
2016-07-31T05:18:56.097Z,5732
2016-07-31T05:19:56.072Z,5684
2016-07-31T05:20:56.068Z,5588
2016-07-31T05:21:56.043Z,5424
2016-07-31T05:22:56.021Z,5212
2016-07-31T05:23:56.011Z,5076
2016-07-31T05:24:55.988Z,5040
2016-07-31T05:25:55.969Z,5092
2016-07-31T05:26:55.960Z,5188
2016-07-31T05:27:55.934Z,5272
2016-07-31T05:28:55.914Z,5388
2016-07-31T05:29:55.892Z,5464
2016-07-31T05:30:55.875Z,5412
2016-07-31T05:31:55.864Z,5300
2016-07-31T05:32:55.844Z,5128
2016-07-31T05:33:55.829Z,5040
2016-07-31T05:34:55.807Z,5100
2016-07-31T05:35:55.786Z,5464
2016-07-31T05:36:55.766Z,5600
2016-07-31T05:37:55.752Z,5496
2016-07-31T05:38:55.736Z,5388
2016-07-31T05:39:55.716Z,5692
2016-07-31T05:40:55.698Z,6100
2016-07-31T05:41:55.680Z,6104
2016-07-31T05:42:55.658Z,5796
2016-07-31T05:43:55.652Z,5528
2016-07-31T05:44:55.623Z,5776
2016-07-31T05:45:55.609Z,6568
2016-07-31T05:46:55.588Z,6772
2016-07-31T05:47:55.570Z,6876
2016-07-31T05:48:55.553Z,6992
2016-07-31T05:49:55.535Z,6916
2016-07-31T05:50:55.516Z,6676
2016-07-31T05:51:55.499Z,6500
2016-07-31T05:52:55.483Z,6560
2016-07-31T05:53:55.468Z,6392
2016-07-31T05:54:55.446Z,6020
2016-07-31T05:55:55.432Z,6496
2016-07-31T05:56:55.412Z,6920
2016-07-31T05:57:55.403Z,7180
2016-07-31T05:58:55.376Z,7224
2016-07-31T05:59:55.357Z,7140
2016-07-31T06:00:55.342Z,6904
2016-07-31T06:01:55.323Z,6480
2016-07-31T06:02:55.313Z,6188
2016-07-31T06:03:55.293Z,6576
2016-07-31T06:04:55.274Z,7188
2016-07-31T06:05:55.252Z,7436
2016-07-31T06:06:55.235Z,7340
2016-07-31T06:07:55.215Z,6944
2016-07-31T06:08:55.197Z,6288
2016-07-31T06:09:55.195Z,5900
2016-07-31T06:10:55.165Z,6372
2016-07-31T06:11:55.148Z,6800
2016-07-31T06:12:55.130Z,6944
2016-07-31T06:13:55.112Z,6284
2016-07-31T06:14:55.094Z,5620
2016-07-31T06:15:55.077Z,5616
2016-07-31T06:16:55.061Z,5524
2016-07-31T06:17:55.741Z,6292
2016-07-31T06:18:55.036Z,6704
2016-07-31T06:19:55.009Z,7324
2016-07-31T06:20:54.990Z,8000
2016-07-31T06:21:55.668Z,8280
2016-07-31T06:22:54.958Z,8696
2016-07-31T06:23:55.635Z,8960
2016-07-31T06:24:54.920Z,8432
2016-07-31T06:25:54.914Z,7688
2016-07-31T06:26:54.892Z,7544
2016-07-31T06:27:54.870Z,8844
2016-07-31T06:28:54.854Z,9836
2016-07-31T06:29:54.842Z,11300
2016-07-31T06:30:54.819Z,12800
2016-07-31T06:31:54.801Z,13388
2016-07-31T06:32:54.779Z,13104
2016-07-31T06:33:54.770Z,12036
2016-07-31T06:34:54.755Z,12172
2016-07-31T06:35:54.735Z,13344
2016-07-31T06:36:54.713Z,13292
2016-07-31T06:37:54.702Z,13200
2016-07-31T06:38:54.683Z,14324
2016-07-31T06:39:54.662Z,15400
2016-07-31T06:40:54.649Z,15132
2016-07-31T06:41:54.635Z,13748
2016-07-31T06:42:54.614Z,13608
2016-07-31T06:43:54.600Z,14196
2016-07-31T06:44:54.582Z,14992
2016-07-31T06:45:54.578Z,15832
2016-07-31T06:46:54.551Z,16676
2016-07-31T06:47:54.536Z,17600
2016-07-31T06:48:54.519Z,18016
2016-07-31T06:49:54.506Z,18400
2016-07-31T06:50:54.484Z,18752
2016-07-31T06:51:54.468Z,19008
2016-07-31T06:52:54.454Z,19232
2016-07-31T06:53:54.432Z,19168
2016-07-31T06:54:54.421Z,19264
2016-07-31T06:55:54.415Z,19424
2016-07-31T06:56:54.385Z,19712
2016-07-31T06:57:54.370Z,19840
2016-07-31T06:58:54.359Z,19840
2016-07-31T06:59:54.335Z,19744
2016-07-31T07:00:54.329Z,19008
2016-07-31T07:01:54.314Z,17728
2016-07-31T07:02:54.292Z,16892
2016-07-31T07:03:54.281Z,16440
2016-07-31T07:04:54.263Z,16336
2016-07-31T07:05:54.246Z,17084
2016-07-31T07:06:54.233Z,17536
2016-07-31T07:07:54.217Z,16972
2016-07-31T07:08:54.201Z,16264
2016-07-31T07:09:54.185Z,15924
2016-07-31T07:10:54.172Z,16020
2016-07-31T07:11:54.149Z,16020
2016-07-31T07:12:54.141Z,15964
2016-07-31T07:13:54.125Z,15848
2016-07-31T07:14:54.108Z,15192
2016-07-31T07:15:54.092Z,14348
2016-07-31T07:16:54.078Z,13184
2016-07-31T07:17:54.093Z,12132
2016-07-31T07:18:54.042Z,12704
2016-07-31T07:19:54.035Z,14144
2016-07-31T07:20:54.020Z,14624
2016-07-31T07:21:54.692Z,14448
2016-07-31T07:22:53.986Z,13920
2016-07-31T07:23:53.967Z,13360
2016-07-31T07:24:53.946Z,12992
2016-07-31T07:25:53.935Z,13128
2016-07-31T07:26:53.919Z,12884
2016-07-31T07:27:53.898Z,12692
2016-07-31T07:28:53.887Z,13748
2016-07-31T07:29:53.877Z,15848
2016-07-31T07:30:53.863Z,18304
2016-07-31T07:31:53.852Z,18976
2016-07-31T07:32:53.827Z,18112
2016-07-31T07:33:53.812Z,16620
2016-07-31T07:34:53.798Z,15240
2016-07-31T07:35:53.779Z,13636
2016-07-31T07:36:53.761Z,12672
2016-07-31T07:37:53.751Z,13292
2016-07-31T07:38:54.423Z,15648
2016-07-31T07:39:53.715Z,18208
2016-07-31T07:40:53.702Z,18560
2016-07-31T07:41:53.690Z,17444
2016-07-31T07:42:53.672Z,18240
2016-07-31T07:43:53.654Z,21632
2016-07-31T07:44:53.641Z,25376
2016-07-31T07:45:54.317Z,27872
2016-07-31T07:46:53.611Z,29536
2016-07-31T07:47:53.588Z,30336
2016-07-31T07:48:53.586Z,30976
2016-07-31T07:49:53.566Z,29952
2016-07-31T07:50:53.545Z,29536
2016-07-31T07:51:53.533Z,30976
2016-07-31T07:52:53.519Z,31328
2016-07-31T07:53:53.501Z,29632
2016-07-31T07:54:54.184Z,27296
2016-07-31T07:55:53.472Z,26016
2016-07-31T07:56:53.459Z,25152
2016-07-31T07:57:53.450Z,23392
2016-07-31T07:58:53.434Z,21408
2016-07-31T07:59:53.418Z,20352
2016-07-31T08:00:53.406Z,19232
2016-07-31T08:01:53.390Z,18080
2016-07-31T08:02:53.372Z,18016
2016-07-31T08:03:53.366Z,18880
2016-07-31T08:04:53.354Z,20160
2016-07-31T08:05:53.335Z,20256
2016-07-31T08:06:53.320Z,20032
2016-07-31T08:07:53.304Z,20704
2016-07-31T08:08:53.291Z,21984
2016-07-31T08:09:53.283Z,22240
2016-07-31T08:10:53.260Z,22304
2016-07-31T08:11:53.250Z,21824
2016-07-31T08:12:53.235Z,22432
2016-07-31T08:13:53.217Z,24064
2016-07-31T08:14:53.209Z,24800
2016-07-31T08:15:53.196Z,24544
2016-07-31T08:16:53.177Z,24032
2016-07-31T08:17:53.168Z,24960
2016-07-31T08:18:53.149Z,25984
2016-07-31T08:19:53.136Z,26336
2016-07-31T08:20:53.128Z,25600
2016-07-31T08:21:53.113Z,24672
2016-07-31T08:22:53.093Z,24160
2016-07-31T08:23:53.082Z,24384
2016-07-31T08:24:53.065Z,24576
2016-07-31T08:25:53.051Z,24448
2016-07-31T08:26:53.037Z,24448
2016-07-31T08:27:53.026Z,24640
2016-07-31T08:28:53.009Z,25024
2016-07-31T08:29:52.998Z,25760
2016-07-31T08:30:52.983Z,26176
2016-07-31T08:31:52.979Z,26752
2016-07-31T08:32:52.953Z,27392
2016-07-31T08:33:52.941Z,27584
2016-07-31T08:34:52.926Z,28992
2016-07-31T08:35:52.916Z,30432
2016-07-31T08:36:52.904Z,31392
2016-07-31T08:37:52.883Z,32096
2016-07-31T08:38:52.870Z,32672
2016-07-31T08:39:52.861Z,33696
2016-07-31T08:40:52.844Z,39744
2016-07-31T08:41:53.149Z,37920
2016-07-31T08:42:52.986Z,40320
2016-07-31T08:43:52.803Z,39136
2016-07-31T08:44:52.789Z,37152
2016-07-31T08:45:52.778Z,36288
2016-07-31T08:46:52.763Z,35200
2016-07-31T08:47:52.746Z,33344
2016-07-31T08:48:52.744Z,34496
2016-07-31T08:49:52.721Z,36800
2016-07-31T08:50:52.707Z,44608
2016-07-31T08:51:52.692Z,41312
2016-07-31T08:52:52.682Z,40448
2016-07-31T08:53:52.664Z,39552
2016-07-31T08:54:52.654Z,39168
2016-07-31T08:55:52.640Z,39712
2016-07-31T08:56:52.626Z,38560
2016-07-31T08:57:52.619Z,34304
2016-07-31T08:58:52.604Z,32032
2016-07-31T09:00:52.579Z,42560
2016-07-31T09:01:52.563Z,73440
2016-07-31T09:02:52.554Z,50784
2016-07-31T09:03:52.541Z,55904
2016-07-31T09:04:52.527Z,40320
2016-07-31T09:05:52.519Z,32448
2016-07-31T09:06:52.509Z,29728
2016-07-31T09:07:52.495Z,28992
2016-07-31T09:08:52.481Z,28704
2016-07-31T09:09:52.467Z,29120
2016-07-31T09:10:52.465Z,28320
2016-07-31T09:11:52.444Z,26784
2016-07-31T09:12:52.433Z,25728
2016-07-31T09:13:52.420Z,24064
2016-07-31T09:15:52.395Z,20160
2016-07-31T09:16:52.387Z,19392
2016-07-31T09:17:52.374Z,20320
2016-07-31T09:18:52.357Z,21216
2016-07-31T09:19:52.349Z,21536
2016-07-31T09:20:52.335Z,21312
2016-07-31T09:21:52.323Z,21408
2016-07-31T09:22:52.311Z,22176
2016-07-31T09:23:52.297Z,22880
2016-07-31T09:24:52.278Z,22656
2016-07-31T09:25:52.270Z,22144
2016-07-31T09:26:52.255Z,22016
2016-07-31T09:27:52.239Z,21760
2016-07-31T09:28:52.229Z,20928
2016-07-31T09:30:52.204Z,22272
2016-07-31T09:31:52.187Z,24128
2016-07-31T09:32:52.173Z,25984
2016-07-31T09:33:52.156Z,27744
2016-07-31T09:34:52.147Z,28672
2016-07-31T09:35:52.128Z,28960
2016-07-31T09:36:52.117Z,29120
2016-07-31T09:37:52.106Z,28192
2016-07-31T09:38:52.085Z,27872
2016-07-31T09:39:52.077Z,29568
2016-07-31T09:40:52.062Z,31296
2016-07-31T09:41:52.047Z,32896
2016-07-31T09:42:52.030Z,34272
2016-07-31T09:43:52.022Z,35360
2016-07-31T09:44:52.007Z,36224
2016-07-31T09:45:51.988Z,37120
2016-07-31T09:46:51.980Z,38400
2016-07-31T09:47:51.964Z,41280
2016-07-31T09:48:51.948Z,43488
2016-07-31T09:49:51.943Z,43104
2016-07-31T09:50:51.927Z,38880
2016-07-31T09:51:51.910Z,36256
2016-07-31T09:52:51.902Z,35488
2016-07-31T09:53:51.888Z,35392
2016-07-31T09:54:51.883Z,35680
2016-07-31T09:55:51.862Z,34304
2016-07-31T09:56:51.846Z,32448
2016-07-31T09:57:51.848Z,30592
2016-07-31T09:58:51.824Z,30496
2016-07-31T09:59:51.811Z,31616
2016-07-31T10:00:51.800Z,31616
2016-07-31T10:01:51.784Z,30496
2016-07-31T10:02:51.778Z,28224
2016-07-31T10:03:51.762Z,25120
2016-07-31T10:04:51.750Z,22688
2016-07-31T10:05:51.743Z,22336
2016-07-31T10:06:51.719Z,22528
2016-07-31T10:07:51.711Z,23360
2016-07-31T10:08:51.696Z,24576
2016-07-31T10:09:51.684Z,25952
2016-07-31T10:10:51.673Z,27488
2016-07-31T10:11:51.661Z,28768
2016-07-31T10:12:51.641Z,29568
2016-07-31T10:13:51.646Z,29952
2016-07-31T10:14:51.621Z,30336
2016-07-31T10:15:51.606Z,30464
2016-07-31T10:16:51.599Z,29728
2016-07-31T10:17:51.593Z,30144
2016-07-31T10:18:51.565Z,30912
2016-07-31T10:19:51.556Z,31840
2016-07-31T10:20:51.541Z,34208
2016-07-31T10:21:51.525Z,37088
2016-07-31T10:22:51.513Z,39744
2016-07-31T10:23:51.501Z,41536
2016-07-31T10:24:51.492Z,42080
2016-07-31T10:25:51.475Z,42528
2016-07-31T10:26:51.465Z,43296
2016-07-31T10:27:51.449Z,46112
2016-07-31T10:28:51.442Z,44896
2016-07-31T10:29:51.432Z,46656
2016-07-31T10:30:51.435Z,50208
2016-07-31T10:31:51.406Z,49696
2016-07-31T10:32:51.390Z,53184
2016-07-31T10:33:51.380Z,101760
2016-07-31T10:34:51.373Z,68832
2016-07-31T10:35:51.356Z,34464
2016-07-31T10:36:51.351Z,26080
2016-07-31T10:37:51.333Z,19648
2016-07-31T10:38:51.325Z,16664
2016-07-31T10:39:51.311Z,16496
2016-07-31T10:40:51.302Z,17600
2016-07-31T10:41:51.290Z,19648
2016-07-31T10:42:51.274Z,22848
2016-07-31T10:43:51.265Z,27616
2016-07-31T10:44:51.259Z,33344
2016-07-31T10:45:51.238Z,38848
2016-07-31T10:46:51.240Z,43264
2016-07-31T10:47:51.218Z,43936
2016-07-31T10:48:51.209Z,41184
2016-07-31T10:49:51.207Z,37920
2016-07-31T10:50:51.175Z,33824
2016-07-31T10:51:51.163Z,30240
2016-07-31T10:52:51.153Z,28640
2016-07-31T10:53:51.141Z,28416
2016-07-31T10:54:51.124Z,30464
2016-07-31T10:55:51.118Z,34688
2016-07-31T10:56:51.112Z,40800
2016-07-31T10:57:51.095Z,47136
2016-07-31T10:58:51.092Z,50592
2016-07-31T10:59:51.066Z,53376
2016-07-31T11:00:51.053Z,52992
2016-07-31T11:01:51.046Z,55744
2016-07-31T11:02:51.033Z,54880
2016-07-31T11:03:51.022Z,52224
2016-07-31T11:04:51.008Z,49984
2016-07-31T11:05:50.995Z,49600
2016-07-31T11:06:50.985Z,48000
2016-07-31T11:07:50.980Z,46528
2016-07-31T11:08:51.652Z,45376
2016-07-31T11:09:50.953Z,41536
2016-07-31T11:10:50.943Z,38496
2016-07-31T11:11:50.927Z,36320
2016-07-31T11:12:50.918Z,34848
2016-07-31T11:13:50.909Z,33792
2016-07-31T11:14:50.893Z,32896
2016-07-31T11:15:50.885Z,32000
2016-07-31T11:16:50.874Z,30784
2016-07-31T11:17:50.856Z,29344
2016-07-31T11:18:50.848Z,27808
2016-07-31T11:19:50.837Z,26304
2016-07-31T11:20:50.821Z,25056
2016-07-31T11:21:50.810Z,24096
2016-07-31T11:22:50.799Z,23648
2016-07-31T11:23:50.783Z,23200
2016-07-31T11:24:51.469Z,22464
2016-07-31T11:25:50.764Z,21824
2016-07-31T11:26:50.805Z,21088
2016-07-31T11:27:50.739Z,20320
2016-07-31T11:28:50.724Z,19456
2016-07-31T11:29:50.711Z,18752
2016-07-31T11:30:50.699Z,18240
2016-07-31T11:31:50.682Z,18304
2016-07-31T11:32:50.670Z,18880
2016-07-31T11:33:50.658Z,19264
2016-07-31T11:34:50.645Z,19040
2016-07-31T11:35:50.633Z,18464
2016-07-31T11:36:50.623Z,17792
2016-07-31T11:37:50.602Z,16784
2016-07-31T11:38:50.588Z,16104
2016-07-31T11:39:50.585Z,15600
2016-07-31T11:40:50.560Z,15080
2016-07-31T11:41:50.547Z,14476
2016-07-31T11:42:50.534Z,13680
2016-07-31T11:43:50.517Z,13424
2016-07-31T11:44:50.502Z,13688
2016-07-31T11:45:50.498Z,14240
2016-07-31T11:46:50.470Z,15388
2016-07-31T11:47:50.460Z,16316
2016-07-31T11:48:50.452Z,16540
2016-07-31T11:49:50.441Z,16036
2016-07-31T11:50:50.409Z,15784
2016-07-31T11:51:50.398Z,16060
2016-07-31T11:52:50.382Z,16532
2016-07-31T11:53:50.367Z,16676
2016-07-31T11:54:50.356Z,16728
2016-07-31T11:55:50.339Z,16796
2016-07-31T11:56:50.320Z,17192
2016-07-31T11:57:50.308Z,18208
2016-07-31T11:58:50.290Z,19360
2016-07-31T11:59:50.274Z,20544
2016-07-31T12:00:50.262Z,21472
2016-07-31T12:01:50.248Z,21824
2016-07-31T12:02:50.917Z,21952
2016-07-31T12:03:50.209Z,22016
2016-07-31T12:04:50.198Z,21984
2016-07-31T12:05:50.181Z,21312
2016-07-31T12:06:50.174Z,20544
2016-07-31T12:07:50.151Z,20160
2016-07-31T12:08:50.132Z,19904
2016-07-31T12:09:50.126Z,19520
2016-07-31T12:10:50.102Z,19392
2016-07-31T12:11:50.083Z,19744
2016-07-31T12:12:50.070Z,20192
2016-07-31T12:13:50.744Z,20128
2016-07-31T12:14:50.037Z,19296
2016-07-31T12:15:50.021Z,18208
2016-07-31T12:16:50.004Z,17176
2016-07-31T12:17:49.990Z,16560
2016-07-31T12:18:49.970Z,15996
2016-07-31T12:19:49.955Z,15440
2016-07-31T12:20:49.940Z,14996
2016-07-31T12:21:49.919Z,14968
2016-07-31T12:22:49.908Z,15328
2016-07-31T12:23:49.893Z,15892
2016-07-31T12:24:49.875Z,16516
2016-07-31T12:25:49.866Z,17164
2016-07-31T12:26:49.843Z,17888
2016-07-31T12:27:49.820Z,18112
2016-07-31T12:28:49.805Z,18272
2016-07-31T12:29:49.803Z,18240
2016-07-31T12:30:49.773Z,18304
2016-07-31T12:31:49.755Z,18624
2016-07-31T12:32:49.740Z,19040
2016-07-31T12:33:49.719Z,19232
2016-07-31T12:34:49.717Z,18912
2016-07-31T12:35:49.689Z,18272
2016-07-31T12:36:49.678Z,17236
2016-07-31T12:37:49.661Z,16296
2016-07-31T12:38:49.637Z,15376
2016-07-31T12:39:49.620Z,14576
2016-07-31T12:40:49.606Z,13948
2016-07-31T12:41:49.587Z,13516
2016-07-31T12:42:49.567Z,13248
2016-07-31T12:43:49.555Z,13080
2016-07-31T12:44:49.536Z,13148
2016-07-31T12:46:49.502Z,14576
2016-07-31T12:47:50.310Z,15880
2016-07-31T12:48:49.464Z,17104
2016-07-31T12:49:49.448Z,18048
2016-07-31T12:50:49.434Z,18368
2016-07-31T12:51:49.412Z,18496
2016-07-31T12:52:49.399Z,18624
2016-07-31T12:53:49.383Z,18880
2016-07-31T12:54:49.364Z,19520
2016-07-31T12:55:49.350Z,20544
2016-07-31T12:56:49.329Z,22176
2016-07-31T12:57:49.314Z,24224
2016-07-31T12:58:49.303Z,26016
2016-07-31T12:59:49.283Z,27136
2016-07-31T13:01:49.253Z,28736
2016-07-31T13:02:49.235Z,30112
2016-07-31T13:03:49.211Z,31488
2016-07-31T13:04:49.201Z,33024
2016-07-31T13:05:49.183Z,35232
2016-07-31T13:06:49.168Z,35552
2016-07-31T13:07:49.164Z,34240
2016-07-31T13:08:49.137Z,33728
2016-07-31T13:09:49.117Z,38176
2016-07-31T13:10:49.111Z,34432
2016-07-31T13:11:49.089Z,33600
2016-07-31T13:12:49.080Z,34624
2016-07-31T13:13:49.061Z,46848
2016-07-31T13:14:49.043Z,65376
2016-07-31T13:15:49.031Z,82688
2016-07-31T13:16:49.027Z,60416
2016-07-31T13:17:49.006Z,56896
2016-07-31T13:18:48.989Z,48992
2016-07-31T13:19:48.974Z,44480
2016-07-31T13:20:48.959Z,41632
2016-07-31T13:21:48.951Z,40416
2016-07-31T13:22:48.935Z,41184
2016-07-31T13:23:48.922Z,40544
2016-07-31T13:24:48.912Z,39648
2016-07-31T13:25:48.900Z,40608
2016-07-31T13:26:48.886Z,35488
2016-07-31T13:27:48.879Z,32256
2016-07-31T13:28:48.860Z,29024
2016-07-31T13:29:48.848Z,26336
2016-07-31T13:30:48.838Z,25120
2016-07-31T13:31:48.829Z,24352
2016-07-31T13:32:48.813Z,23552
2016-07-31T13:33:48.795Z,23136
2016-07-31T13:34:48.787Z,23840
2016-07-31T13:35:48.775Z,25280
2016-07-31T13:36:48.755Z,26112
2016-07-31T13:37:48.751Z,25824